sensor_id;sensor_type;location;lat;lon;timestamp;temperature;humidity
25973;DHT22;13765;51.166;4.466;2022-11-20T00:01:25;5.10;99.90
25973;DHT22;13765;51.166;4.466;2022-11-20T00:03:55;5.10;99.90
25973;DHT22;13765;51.166;4.466;2022-11-20T00:06:22;5.10;99.90
25973;DHT22;13765;51.166;4.466;2022-11-20T00:08:49;5.10;99.90
25973;DHT22;13765;51.166;4.466;2022-11-20T00:11:20;5.10;99.90
25973;DHT22;13765;51.166;4.466;2022-11-20T00:13:48;5.20;99.90
25973;DHT22;13765;51.166;4.466;2022-11-20T00:16:17;5.20;99.90
25973;DHT22;13765;51.166;4.466;2022-11-20T00:18:43;5.20;99.90
25973;DHT22;13765;51.166;4.466;2022-11-20T00:21:20;5.30;99.90
25973;DHT22;13765;51.166;4.466;2022-11-20T00:23:47;5.20;99.90
25973;DHT22;13765;51.166;4.466;2022-11-20T00:26:14;5.20;99.90
25973;DHT22;13765;51.166;4.466;2022-11-20T00:28:41;5.20;99.90
25973;DHT22;13765;51.166;4.466;2022-11-20T00:31:12;5.20;99.90
25973;DHT22;13765;51.166;4.466;2022-11-20T00:33:38;5.20;99.90
25973;DHT22;13765;51.166;4.466;2022-11-20T00:36:18;5.20;99.90
25973;DHT22;13765;51.166;4.466;2022-11-20T00:38:45;5.20;99.90
25973;DHT22;13765;51.166;4.466;2022-11-20T00:41:15;5.20;99.90
25973;DHT22;13765;51.166;4.466;2022-11-20T00:43:42;5.20;99.90
25973;DHT22;13765;51.166;4.466;2022-11-20T00:46:14;5.20;99.90
25973;DHT22;13765;51.166;4.466;2022-11-20T00:48:41;5.30;99.90
25973;DHT22;13765;51.166;4.466;2022-11-20T00:51:12;5.30;99.90
25973;DHT22;13765;51.166;4.466;2022-11-20T00:53:41;5.30;99.90
25973;DHT22;13765;51.166;4.466;2022-11-20T00:56:17;5.30;99.90
25973;DHT22;13765;51.166;4.466;2022-11-20T00:58:45;5.40;99.90
25973;DHT22;13765;51.166;4.466;2022-11-20T01:01:18;5.30;99.90
25973;DHT22;13765;51.166;4.466;2022-11-20T01:03:46;5.40;99.90
25973;DHT22;13765;51.166;4.466;2022-11-20T01:06:18;5.40;99.90
25973;DHT22;13765;51.166;4.466;2022-11-20T01:08:45;5.40;99.90
25973;DHT22;13765;51.166;4.466;2022-11-20T01:11:17;5.40;99.90
25973;DHT22;13765;51.166;4.466;2022-11-20T01:13:47;5.30;99.90
25973;DHT22;13765;51.166;4.466;2022-11-20T01:16:18;5.30;99.90
25973;DHT22;13765;51.166;4.466;2022-11-20T01:18:54;5.40;99.90
25973;DHT22;13765;51.166;4.466;2022-11-20T01:21:32;5.30;99.90
25973;DHT22;13765;51.166;4.466;2022-11-20T01:24:02;5.30;99.90
25973;DHT22;13765;51.166;4.466;2022-11-20T01:26:32;5.20;99.90
25973;DHT22;13765;51.166;4.466;2022-11-20T01:29:01;5.20;99.90
25973;DHT22;13765;51.166;4.466;2022-11-20T01:31:30;5.20;99.90
25973;DHT22;13765;51.166;4.466;2022-11-20T01:34:01;5.20;99.90
25973;DHT22;13765;51.166;4.466;2022-11-20T01:36:31;5.10;99.90
25973;DHT22;13765;51.166;4.466;2022-11-20T01:39:07;5.10;99.90
25973;DHT22;13765;51.166;4.466;2022-11-20T01:41:33;5.10;99.90
25973;DHT22;13765;51.166;4.466;2022-11-20T01:44:22;5.10;99.90
25973;DHT22;13765;51.166;4.466;2022-11-20T01:49:21;5.00;99.90
25973;DHT22;13765;51.166;4.466;2022-11-20T01:52:05;5.00;99.90
25973;DHT22;13765;51.166;4.466;2022-11-20T01:54:36;5.00;99.90
25973;DHT22;13765;51.166;4.466;2022-11-20T01:57:06;5.00;99.90
25973;DHT22;13765;51.166;4.466;2022-11-20T01:59:36;5.00;99.90
25973;DHT22;13765;51.166;4.466;2022-11-20T02:02:05;5.00;99.90
25973;DHT22;13765;51.166;4.466;2022-11-20T02:04:33;4.90;99.90
25973;DHT22;13765;51.166;4.466;2022-11-20T02:07:01;5.00;99.90
25973;DHT22;13765;51.166;4.466;2022-11-20T02:09:30;5.00;99.90
25973;DHT22;13765;51.166;4.466;2022-11-20T02:11:57;5.00;99.90
25973;DHT22;13765;51.166;4.466;2022-11-20T02:14:24;5.00;99.90
25973;DHT22;13765;51.166;4.466;2022-11-20T02:16:56;5.00;99.90
25973;DHT22;13765;51.166;4.466;2022-11-20T02:19:24;5.00;99.90
25973;DHT22;13765;51.166;4.466;2022-11-20T02:24:33;4.90;99.90
25973;DHT22;13765;51.166;4.466;2022-11-20T02:27:06;5.00;99.90
25973;DHT22;13765;51.166;4.466;2022-11-20T02:29:50;5.00;99.90
25973;DHT22;13765;51.166;4.466;2022-11-20T02:32:24;5.00;99.90
25973;DHT22;13765;51.166;4.466;2022-11-20T02:34:51;4.90;99.90
25973;DHT22;13765;51.166;4.466;2022-11-20T02:37:16;5.00;99.90
25973;DHT22;13765;51.166;4.466;2022-11-20T02:39:51;5.00;99.90
25973;DHT22;13765;51.166;4.466;2022-11-20T02:42:18;4.90;99.90
25973;DHT22;13765;51.166;4.466;2022-11-20T02:44:43;5.00;99.90
25973;DHT22;13765;51.166;4.466;2022-11-20T02:47:12;4.90;99.90
25973;DHT22;13765;51.166;4.466;2022-11-20T02:49:40;4.80;99.90
25973;DHT22;13765;51.166;4.466;2022-11-20T02:52:06;4.80;99.90
25973;DHT22;13765;51.166;4.466;2022-11-20T02:54:32;4.80;99.90
25973;DHT22;13765;51.166;4.466;2022-11-20T02:56:59;4.70;99.90
25973;DHT22;13765;51.166;4.466;2022-11-20T02:59:27;4.80;99.90
25973;DHT22;13765;51.166;4.466;2022-11-20T03:01:53;4.70;99.90
25973;DHT22;13765;51.166;4.466;2022-11-20T03:04:21;4.80;99.90
25973;DHT22;13765;51.166;4.466;2022-11-20T03:06:48;4.70;99.90
25973;DHT22;13765;51.166;4.466;2022-11-20T03:09:14;4.80;99.90
25973;DHT22;13765;51.166;4.466;2022-11-20T03:11:40;4.70;99.90
25973;DHT22;13765;51.166;4.466;2022-11-20T03:14:06;4.80;99.90
25973;DHT22;13765;51.166;4.466;2022-11-20T03:16:33;4.80;99.90
25973;DHT22;13765;51.166;4.466;2022-11-20T03:19:01;4.60;99.90
25973;DHT22;13765;51.166;4.466;2022-11-20T03:21:29;4.70;99.90
25973;DHT22;13765;51.166;4.466;2022-11-20T03:23:57;4.60;99.90
25973;DHT22;13765;51.166;4.466;2022-11-20T03:26:25;4.60;99.90
25973;DHT22;13765;51.166;4.466;2022-11-20T03:28:59;4.70;99.90
25973;DHT22;13765;51.166;4.466;2022-11-20T03:31:30;4.70;99.90
25973;DHT22;13765;51.166;4.466;2022-11-20T03:33:57;4.70;99.90
25973;DHT22;13765;51.166;4.466;2022-11-20T03:36:25;4.60;99.90
25973;DHT22;13765;51.166;4.466;2022-11-20T03:38:53;4.60;99.90
25973;DHT22;13765;51.166;4.466;2022-11-20T03:41:22;4.60;99.90
25973;DHT22;13765;51.166;4.466;2022-11-20T03:44:00;4.60;99.90
25973;DHT22;13765;51.166;4.466;2022-11-20T03:46:29;4.50;99.90
25973;DHT22;13765;51.166;4.466;2022-11-20T03:48:55;4.60;99.90
25973;DHT22;13765;51.166;4.466;2022-11-20T03:51:27;4.60;99.90
25973;DHT22;13765;51.166;4.466;2022-11-20T03:53:57;4.60;99.90
25973;DHT22;13765;51.166;4.466;2022-11-20T03:56:28;4.60;99.90
25973;DHT22;13765;51.166;4.466;2022-11-20T03:58:57;4.60;99.90
25973;DHT22;13765;51.166;4.466;2022-11-20T04:01:25;4.50;99.90
25973;DHT22;13765;51.166;4.466;2022-11-20T04:03:53;4.60;99.90
25973;DHT22;13765;51.166;4.466;2022-11-20T04:06:28;4.60;99.90
25973;DHT22;13765;51.166;4.466;2022-11-20T04:08:56;4.70;99.90
25973;DHT22;13765;51.166;4.466;2022-11-20T04:11:27;4.80;99.90
25973;DHT22;13765;51.166;4.466;2022-11-20T04:13:59;4.80;99.90
25973;DHT22;13765;51.166;4.466;2022-11-20T04:16:35;4.80;99.90
25973;DHT22;13765;51.166;4.466;2022-11-20T04:19:03;4.90;99.90
25973;DHT22;13765;51.166;4.466;2022-11-20T04:21:30;4.80;99.90
25973;DHT22;13765;51.166;4.466;2022-11-20T04:23:56;4.80;99.90
25973;DHT22;13765;51.166;4.466;2022-11-20T04:26:24;4.70;99.90
25973;DHT22;13765;51.166;4.466;2022-11-20T04:28:51;4.70;99.90
25973;DHT22;13765;51.166;4.466;2022-11-20T04:31:36;4.80;99.90
25973;DHT22;13765;51.166;4.466;2022-11-20T04:34:04;4.80;99.90
25973;DHT22;13765;51.166;4.466;2022-11-20T04:36:33;4.80;99.90
25973;DHT22;13765;51.166;4.466;2022-11-20T04:39:02;4.80;99.90
25973;DHT22;13765;51.166;4.466;2022-11-20T04:41:31;4.80;99.90
25973;DHT22;13765;51.166;4.466;2022-11-20T04:44:01;4.90;99.90
25973;DHT22;13765;51.166;4.466;2022-11-20T04:46:32;5.00;99.90
25973;DHT22;13765;51.166;4.466;2022-11-20T04:48:59;4.90;99.90
25973;DHT22;13765;51.166;4.466;2022-11-20T04:51:25;4.90;99.90
25973;DHT22;13765;51.166;4.466;2022-11-20T04:53:51;4.90;99.90
25973;DHT22;13765;51.166;4.466;2022-11-20T04:56:17;4.90;99.90
25973;DHT22;13765;51.166;4.466;2022-11-20T04:58:45;4.90;99.90
25973;DHT22;13765;51.166;4.466;2022-11-20T05:01:19;4.90;99.90
25973;DHT22;13765;51.166;4.466;2022-11-20T05:03:45;4.90;99.90
25973;DHT22;13765;51.166;4.466;2022-11-20T05:06:15;4.90;99.90
25973;DHT22;13765;51.166;4.466;2022-11-20T05:08:44;4.90;99.90
25973;DHT22;13765;51.166;4.466;2022-11-20T05:11:12;4.90;99.90
25973;DHT22;13765;51.166;4.466;2022-11-20T05:13:38;5.00;99.90
25973;DHT22;13765;51.166;4.466;2022-11-20T05:16:13;5.00;99.90
25973;DHT22;13765;51.166;4.466;2022-11-20T05:18:40;4.90;99.90
25973;DHT22;13765;51.166;4.466;2022-11-20T05:21:09;4.90;99.90
25973;DHT22;13765;51.166;4.466;2022-11-20T05:23:38;4.80;99.90
25973;DHT22;13765;51.166;4.466;2022-11-20T05:26:06;4.90;99.90
25973;DHT22;13765;51.166;4.466;2022-11-20T05:28:33;4.90;99.90
25973;DHT22;13765;51.166;4.466;2022-11-20T05:31:22;5.00;99.90
25973;DHT22;13765;51.166;4.466;2022-11-20T05:33:51;5.00;99.90
25973;DHT22;13765;51.166;4.466;2022-11-20T05:36:17;5.10;99.90
25973;DHT22;13765;51.166;4.466;2022-11-20T05:38:43;5.10;99.90
25973;DHT22;13765;51.166;4.466;2022-11-20T05:41:17;5.00;99.90
25973;DHT22;13765;51.166;4.466;2022-11-20T05:43:45;5.10;99.90
25973;DHT22;13765;51.166;4.466;2022-11-20T05:46:13;5.00;99.90
25973;DHT22;13765;51.166;4.466;2022-11-20T05:48:43;5.10;99.90
25973;DHT22;13765;51.166;4.466;2022-11-20T05:51:16;5.00;99.90
25973;DHT22;13765;51.166;4.466;2022-11-20T05:53:43;5.00;99.90
25973;DHT22;13765;51.166;4.466;2022-11-20T05:56:15;5.10;99.90
25973;DHT22;13765;51.166;4.466;2022-11-20T05:58:43;5.00;99.90
25973;DHT22;13765;51.166;4.466;2022-11-20T06:01:20;5.00;99.90
25973;DHT22;13765;51.166;4.466;2022-11-20T06:03:52;4.80;99.90
25973;DHT22;13765;51.166;4.466;2022-11-20T06:06:19;4.90;99.90
25973;DHT22;13765;51.166;4.466;2022-11-20T06:08:45;4.90;99.90
25973;DHT22;13765;51.166;4.466;2022-11-20T06:11:16;5.00;99.90
25973;DHT22;13765;51.166;4.466;2022-11-20T06:13:42;5.00;99.90
25973;DHT22;13765;51.166;4.466;2022-11-20T06:16:10;4.90;99.90
25973;DHT22;13765;51.166;4.466;2022-11-20T06:18:36;4.90;99.90
25973;DHT22;13765;51.166;4.466;2022-11-20T06:23:34;4.80;99.90
25973;DHT22;13765;51.166;4.466;2022-11-20T06:26:08;4.90;99.90
25973;DHT22;13765;51.166;4.466;2022-11-20T06:28:35;4.80;99.90
25973;DHT22;13765;51.166;4.466;2022-11-20T06:31:04;4.80;99.90
25973;DHT22;13765;51.166;4.466;2022-11-20T06:33:30;4.70;99.90
25973;DHT22;13765;51.166;4.466;2022-11-20T06:35:58;4.70;99.90
25973;DHT22;13765;51.166;4.466;2022-11-20T06:38:25;4.70;99.90
25973;DHT22;13765;51.166;4.466;2022-11-20T06:40:54;4.70;99.90
25973;DHT22;13765;51.166;4.466;2022-11-20T06:43:20;4.70;99.90
25973;DHT22;13765;51.166;4.466;2022-11-20T06:45:46;4.70;99.90
25973;DHT22;13765;51.166;4.466;2022-11-20T06:48:11;4.80;99.90
25973;DHT22;13765;51.166;4.466;2022-11-20T06:50:40;4.70;99.90
25973;DHT22;13765;51.166;4.466;2022-11-20T06:53:08;4.70;99.90
25973;DHT22;13765;51.166;4.466;2022-11-20T06:55:42;4.80;99.90
25973;DHT22;13765;51.166;4.466;2022-11-20T06:58:09;4.70;99.90
25973;DHT22;13765;51.166;4.466;2022-11-20T07:00:34;4.80;99.90
25973;DHT22;13765;51.166;4.466;2022-11-20T07:03:04;4.70;99.90
25973;DHT22;13765;51.166;4.466;2022-11-20T07:05:32;4.60;99.90
25973;DHT22;13765;51.166;4.466;2022-11-20T07:07:59;4.70;99.90
25973;DHT22;13765;51.166;4.466;2022-11-20T07:10:25;4.90;99.90
25973;DHT22;13765;51.166;4.466;2022-11-20T07:12:56;4.80;99.90
25973;DHT22;13765;51.166;4.466;2022-11-20T07:15:23;4.80;99.90
25973;DHT22;13765;51.166;4.466;2022-11-20T07:17:49;4.90;99.90
25973;DHT22;13765;51.166;4.466;2022-11-20T07:20:15;4.90;99.90
25973;DHT22;13765;51.166;4.466;2022-11-20T07:22:41;4.90;99.90
25973;DHT22;13765;51.166;4.466;2022-11-20T07:25:08;4.90;99.90
25973;DHT22;13765;51.166;4.466;2022-11-20T07:27:33;5.00;99.90
25973;DHT22;13765;51.166;4.466;2022-11-20T07:30:03;5.00;99.90
25973;DHT22;13765;51.166;4.466;2022-11-20T07:32:30;5.00;99.90
25973;DHT22;13765;51.166;4.466;2022-11-20T07:34:55;5.10;99.90
25973;DHT22;13765;51.166;4.466;2022-11-20T07:37:21;5.10;99.90
25973;DHT22;13765;51.166;4.466;2022-11-20T07:39:47;5.00;99.90
25973;DHT22;13765;51.166;4.466;2022-11-20T07:42:15;5.10;99.90
25973;DHT22;13765;51.166;4.466;2022-11-20T07:44:42;5.20;99.90
25973;DHT22;13765;51.166;4.466;2022-11-20T07:47:10;5.10;99.90
25973;DHT22;13765;51.166;4.466;2022-11-20T07:49:39;5.10;99.90
25973;DHT22;13765;51.166;4.466;2022-11-20T07:52:05;5.10;99.90
25973;DHT22;13765;51.166;4.466;2022-11-20T07:54:31;5.20;99.90
25973;DHT22;13765;51.166;4.466;2022-11-20T07:57:02;5.30;99.90
25973;DHT22;13765;51.166;4.466;2022-11-20T07:59:27;5.20;99.90
25973;DHT22;13765;51.166;4.466;2022-11-20T08:01:53;5.20;99.90
25973;DHT22;13765;51.166;4.466;2022-11-20T08:04:19;5.40;99.90
25973;DHT22;13765;51.166;4.466;2022-11-20T08:06:48;5.40;99.90
25973;DHT22;13765;51.166;4.466;2022-11-20T08:09:17;5.50;99.90
25973;DHT22;13765;51.166;4.466;2022-11-20T08:11:43;5.40;99.90
25973;DHT22;13765;51.166;4.466;2022-11-20T08:14:27;5.40;99.90
25973;DHT22;13765;51.166;4.466;2022-11-20T08:16:53;5.50;99.90
25973;DHT22;13765;51.166;4.466;2022-11-20T08:19:19;5.60;99.90
25973;DHT22;13765;51.166;4.466;2022-11-20T08:21:45;5.50;99.90
25973;DHT22;13765;51.166;4.466;2022-11-20T08:24:11;5.60;99.90
25973;DHT22;13765;51.166;4.466;2022-11-20T08:26:38;5.60;99.90
25973;DHT22;13765;51.166;4.466;2022-11-20T08:29:05;5.70;99.90
25973;DHT22;13765;51.166;4.466;2022-11-20T08:31:31;5.80;99.90
25973;DHT22;13765;51.166;4.466;2022-11-20T08:33:57;5.70;99.90
25973;DHT22;13765;51.166;4.466;2022-11-20T08:36:25;5.80;99.90
25973;DHT22;13765;51.166;4.466;2022-11-20T08:38:53;5.70;99.90
25973;DHT22;13765;51.166;4.466;2022-11-20T08:41:20;5.80;99.90
25973;DHT22;13765;51.166;4.466;2022-11-20T08:44:07;5.80;99.90
25973;DHT22;13765;51.166;4.466;2022-11-20T08:46:36;5.80;99.90
25973;DHT22;13765;51.166;4.466;2022-11-20T08:49:03;5.80;99.90
25973;DHT22;13765;51.166;4.466;2022-11-20T08:51:29;5.90;99.90
25973;DHT22;13765;51.166;4.466;2022-11-20T08:53:55;6.00;99.90
25973;DHT22;13765;51.166;4.466;2022-11-20T08:56:21;6.10;99.90
25973;DHT22;13765;51.166;4.466;2022-11-20T08:58:50;6.20;99.90
25973;DHT22;13765;51.166;4.466;2022-11-20T09:01:18;6.30;99.90
25973;DHT22;13765;51.166;4.466;2022-11-20T09:03:43;6.20;99.90
25973;DHT22;13765;51.166;4.466;2022-11-20T09:06:09;6.20;99.90
25973;DHT22;13765;51.166;4.466;2022-11-20T09:08:35;6.20;99.90
25973;DHT22;13765;51.166;4.466;2022-11-20T09:11:02;6.20;99.90
25973;DHT22;13765;51.166;4.466;2022-11-20T09:13:30;6.30;99.90
25973;DHT22;13765;51.166;4.466;2022-11-20T09:16:02;6.30;99.90
25973;DHT22;13765;51.166;4.466;2022-11-20T09:18:31;6.30;99.90
25973;DHT22;13765;51.166;4.466;2022-11-20T09:21:00;6.40;99.90
25973;DHT22;13765;51.166;4.466;2022-11-20T09:23:30;6.30;99.90
25973;DHT22;13765;51.166;4.466;2022-11-20T09:25:56;6.40;99.90
25973;DHT22;13765;51.166;4.466;2022-11-20T09:28:25;6.40;99.90
25973;DHT22;13765;51.166;4.466;2022-11-20T09:30:56;6.50;99.90
25973;DHT22;13765;51.166;4.466;2022-11-20T09:33:22;6.50;99.90
25973;DHT22;13765;51.166;4.466;2022-11-20T09:35:48;6.60;99.90
25973;DHT22;13765;51.166;4.466;2022-11-20T09:38:18;6.70;99.90
25973;DHT22;13765;51.166;4.466;2022-11-20T09:40:54;6.80;99.90
25973;DHT22;13765;51.166;4.466;2022-11-20T09:43:40;6.80;99.90
25973;DHT22;13765;51.166;4.466;2022-11-20T09:46:20;6.80;99.90
25973;DHT22;13765;51.166;4.466;2022-11-20T09:49:09;6.80;99.90
25973;DHT22;13765;51.166;4.466;2022-11-20T09:52:02;6.80;99.90
25973;DHT22;13765;51.166;4.466;2022-11-20T09:54:35;6.90;99.90
25973;DHT22;13765;51.166;4.466;2022-11-20T09:57:21;6.90;99.90
25973;DHT22;13765;51.166;4.466;2022-11-20T09:59:53;6.90;99.90
25973;DHT22;13765;51.166;4.466;2022-11-20T10:16:18;6.80;99.90
25973;DHT22;13765;51.166;4.466;2022-11-20T10:22:05;6.70;99.90
25973;DHT22;13765;51.166;4.466;2022-11-20T10:24:41;6.70;99.90
25973;DHT22;13765;51.166;4.466;2022-11-20T10:30:15;6.90;99.90
25973;DHT22;13765;51.166;4.466;2022-11-20T10:32:45;7.00;99.90
25973;DHT22;13765;51.166;4.466;2022-11-20T10:35:28;7.10;99.90
25973;DHT22;13765;51.166;4.466;2022-11-20T10:38:03;7.20;99.90
25973;DHT22;13765;51.166;4.466;2022-11-20T10:40:46;7.30;99.90
25973;DHT22;13765;51.166;4.466;2022-11-20T10:43:28;7.30;99.90
25973;DHT22;13765;51.166;4.466;2022-11-20T10:46:20;7.30;99.90
25973;DHT22;13765;51.166;4.466;2022-11-20T10:48:50;7.40;99.90
25973;DHT22;13765;51.166;4.466;2022-11-20T10:57:18;7.70;99.90
25973;DHT22;13765;51.166;4.466;2022-11-20T11:02:31;7.80;99.90
25973;DHT22;13765;51.166;4.466;2022-11-20T11:05:08;7.70;99.90
25973;DHT22;13765;51.166;4.466;2022-11-20T11:07:39;7.90;99.90
25973;DHT22;13765;51.166;4.466;2022-11-20T11:10:18;8.00;99.90
25973;DHT22;13765;51.166;4.466;2022-11-20T11:12:47;8.00;99.90
25973;DHT22;13765;51.166;4.466;2022-11-20T11:15:38;8.00;99.90
25973;DHT22;13765;51.166;4.466;2022-11-20T11:18:26;8.10;99.90
25973;DHT22;13765;51.166;4.466;2022-11-20T11:20:53;8.20;99.90
25973;DHT22;13765;51.166;4.466;2022-11-20T11:23:38;8.30;99.90
25973;DHT22;13765;51.166;4.466;2022-11-20T11:26:22;8.40;99.90
25973;DHT22;13765;51.166;4.466;2022-11-20T11:29:02;8.50;99.90
25973;DHT22;13765;51.166;4.466;2022-11-20T11:31:33;8.50;99.90
25973;DHT22;13765;51.166;4.466;2022-11-20T11:34:16;8.40;99.90
25973;DHT22;13765;51.166;4.466;2022-11-20T11:37:10;8.50;99.90
25973;DHT22;13765;51.166;4.466;2022-11-20T11:39:42;8.50;99.90
25973;DHT22;13765;51.166;4.466;2022-11-20T11:42:13;8.70;99.90
25973;DHT22;13765;51.166;4.466;2022-11-20T11:44:45;8.70;99.90
25973;DHT22;13765;51.166;4.466;2022-11-20T11:55:13;8.90;99.90
25973;DHT22;13765;51.166;4.466;2022-11-20T12:00:37;9.20;99.90
25973;DHT22;13765;51.166;4.466;2022-11-20T12:03:17;9.10;99.90
25973;DHT22;13765;51.166;4.466;2022-11-20T12:05:51;9.20;99.90
25973;DHT22;13765;51.166;4.466;2022-11-20T12:08:28;9.10;99.90
25973;DHT22;13765;51.166;4.466;2022-11-20T12:11:11;9.10;99.90
25973;DHT22;13765;51.166;4.466;2022-11-20T12:16:42;9.40;99.90
25973;DHT22;13765;51.166;4.466;2022-11-20T12:19:13;9.40;99.90
25973;DHT22;13765;51.166;4.466;2022-11-20T12:22:01;9.40;99.90
25973;DHT22;13765;51.166;4.466;2022-11-20T12:27:05;9.40;99.90
25973;DHT22;13765;51.166;4.466;2022-11-20T12:29:51;9.50;99.90
25973;DHT22;13765;51.166;4.466;2022-11-20T12:43:27;9.30;99.90
25973;DHT22;13765;51.166;4.466;2022-11-20T12:52:11;9.20;99.90
25973;DHT22;13765;51.166;4.466;2022-11-20T12:54:50;9.10;99.90
25973;DHT22;13765;51.166;4.466;2022-11-20T13:00:16;9.30;99.90
25973;DHT22;13765;51.166;4.466;2022-11-20T13:08:25;9.20;99.90
25973;DHT22;13765;51.166;4.466;2022-11-20T13:16:17;8.90;99.90
25973;DHT22;13765;51.166;4.466;2022-11-20T13:18:45;9.00;99.90
25973;DHT22;13765;51.166;4.466;2022-11-20T13:21:39;8.90;99.90
25973;DHT22;13765;51.166;4.466;2022-11-20T13:24:06;9.00;99.90
25973;DHT22;13765;51.166;4.466;2022-11-20T13:26:33;9.00;99.90
25973;DHT22;13765;51.166;4.466;2022-11-20T13:29:09;9.00;99.90
25973;DHT22;13765;51.166;4.466;2022-11-20T13:31:42;8.90;99.90
25973;DHT22;13765;51.166;4.466;2022-11-20T13:34:13;8.90;99.90
25973;DHT22;13765;51.166;4.466;2022-11-20T13:36:49;8.90;99.90
25973;DHT22;13765;51.166;4.466;2022-11-20T13:39:28;9.00;99.90
25973;DHT22;13765;51.166;4.466;2022-11-20T13:44:35;9.00;99.90
25973;DHT22;13765;51.166;4.466;2022-11-20T13:47:03;8.80;99.90
25973;DHT22;13765;51.166;4.466;2022-11-20T13:49:34;8.70;99.90
25973;DHT22;13765;51.166;4.466;2022-11-20T13:52:39;8.80;99.90
25973;DHT22;13765;51.166;4.466;2022-11-20T13:57:57;8.90;99.90
25973;DHT22;13765;51.166;4.466;2022-11-20T14:00:27;8.80;99.90
25973;DHT22;13765;51.166;4.466;2022-11-20T14:05:36;8.80;99.90
25973;DHT22;13765;51.166;4.466;2022-11-20T14:08:06;8.80;99.90
25973;DHT22;13765;51.166;4.466;2022-11-20T14:10:39;8.70;99.90
25973;DHT22;13765;51.166;4.466;2022-11-20T14:13:21;8.80;99.90
25973;DHT22;13765;51.166;4.466;2022-11-20T14:15:47;8.80;99.90
25973;DHT22;13765;51.166;4.466;2022-11-20T14:18:25;8.90;99.90
25973;DHT22;13765;51.166;4.466;2022-11-20T14:20:53;8.90;99.90
25973;DHT22;13765;51.166;4.466;2022-11-20T14:23:27;8.90;99.90
25973;DHT22;13765;51.166;4.466;2022-11-20T14:25:53;9.00;99.90
25973;DHT22;13765;51.166;4.466;2022-11-20T14:28:30;8.90;99.90
25973;DHT22;13765;51.166;4.466;2022-11-20T14:30:57;9.00;99.90
25973;DHT22;13765;51.166;4.466;2022-11-20T14:33:26;9.00;99.90
25973;DHT22;13765;51.166;4.466;2022-11-20T14:35:57;8.90;99.90
25973;DHT22;13765;51.166;4.466;2022-11-20T14:38:29;8.90;99.90
25973;DHT22;13765;51.166;4.466;2022-11-20T14:41:16;9.00;99.90
25973;DHT22;13765;51.166;4.466;2022-11-20T14:43:58;9.00;99.90
25973;DHT22;13765;51.166;4.466;2022-11-20T14:46:25;9.00;99.90
25973;DHT22;13765;51.166;4.466;2022-11-20T14:48:55;9.00;99.90
25973;DHT22;13765;51.166;4.466;2022-11-20T14:51:36;8.90;99.90
25973;DHT22;13765;51.166;4.466;2022-11-20T14:54:11;8.90;99.90
25973;DHT22;13765;51.166;4.466;2022-11-20T14:56:37;8.90;99.90
25973;DHT22;13765;51.166;4.466;2022-11-20T14:59:07;8.90;99.90
25973;DHT22;13765;51.166;4.466;2022-11-20T15:01:36;8.70;99.90
25973;DHT22;13765;51.166;4.466;2022-11-20T15:06:32;8.80;99.90
25973;DHT22;13765;51.166;4.466;2022-11-20T15:08:58;8.90;99.90
25973;DHT22;13765;51.166;4.466;2022-11-20T15:11:30;8.90;99.90
25973;DHT22;13765;51.166;4.466;2022-11-20T15:13:58;8.90;99.90
25973;DHT22;13765;51.166;4.466;2022-11-20T15:16:28;8.80;99.90
25973;DHT22;13765;51.166;4.466;2022-11-20T15:18:53;8.80;99.90
25973;DHT22;13765;51.166;4.466;2022-11-20T15:21:23;8.80;99.90
25973;DHT22;13765;51.166;4.466;2022-11-20T15:23:49;8.90;99.90
25973;DHT22;13765;51.166;4.466;2022-11-20T15:26:24;8.90;99.90
25973;DHT22;13765;51.166;4.466;2022-11-20T15:28:51;8.80;99.90
25973;DHT22;13765;51.166;4.466;2022-11-20T15:31:20;8.70;99.90
25973;DHT22;13765;51.166;4.466;2022-11-20T15:33:46;8.80;99.90
25973;DHT22;13765;51.166;4.466;2022-11-20T15:36:12;8.80;99.90
25973;DHT22;13765;51.166;4.466;2022-11-20T15:38:38;8.80;99.90
25973;DHT22;13765;51.166;4.466;2022-11-20T15:41:05;8.90;99.90
25973;DHT22;13765;51.166;4.466;2022-11-20T15:43:31;8.90;99.90
25973;DHT22;13765;51.166;4.466;2022-11-20T15:46:00;8.90;99.90
25973;DHT22;13765;51.166;4.466;2022-11-20T15:48:33;8.90;99.90
25973;DHT22;13765;51.166;4.466;2022-11-20T15:51:07;8.80;99.90
25973;DHT22;13765;51.166;4.466;2022-11-20T15:53:38;8.80;99.90
25973;DHT22;13765;51.166;4.466;2022-11-20T15:56:12;8.80;99.90
25973;DHT22;13765;51.166;4.466;2022-11-20T15:58:38;8.80;99.90
25973;DHT22;13765;51.166;4.466;2022-11-20T16:01:13;8.90;99.90
25973;DHT22;13765;51.166;4.466;2022-11-20T16:03:46;8.90;99.90
25973;DHT22;13765;51.166;4.466;2022-11-20T16:06:13;8.90;99.90
25973;DHT22;13765;51.166;4.466;2022-11-20T16:08:41;8.90;99.90
25973;DHT22;13765;51.166;4.466;2022-11-20T16:11:13;8.90;99.90
25973;DHT22;13765;51.166;4.466;2022-11-20T16:13:42;8.80;99.90
25973;DHT22;13765;51.166;4.466;2022-11-20T16:16:33;8.80;99.90
25973;DHT22;13765;51.166;4.466;2022-11-20T16:18:59;8.90;99.90
25973;DHT22;13765;51.166;4.466;2022-11-20T16:21:28;8.90;99.90
25973;DHT22;13765;51.166;4.466;2022-11-20T16:24:00;8.90;99.90
25973;DHT22;13765;51.166;4.466;2022-11-20T16:26:26;9.00;99.90
25973;DHT22;13765;51.166;4.466;2022-11-20T16:28:54;9.00;99.90
25973;DHT22;13765;51.166;4.466;2022-11-20T16:31:20;9.00;99.90
25973;DHT22;13765;51.166;4.466;2022-11-20T16:33:51;9.00;99.90
25973;DHT22;13765;51.166;4.466;2022-11-20T16:36:22;9.10;99.90
25973;DHT22;13765;51.166;4.466;2022-11-20T16:38:53;9.00;99.90
25973;DHT22;13765;51.166;4.466;2022-11-20T16:41:20;9.10;99.90
25973;DHT22;13765;51.166;4.466;2022-11-20T16:43:50;9.10;99.90
25973;DHT22;13765;51.166;4.466;2022-11-20T16:46:21;9.10;99.90
25973;DHT22;13765;51.166;4.466;2022-11-20T16:49:02;9.10;99.90
25973;DHT22;13765;51.166;4.466;2022-11-20T16:51:30;9.00;99.90
25973;DHT22;13765;51.166;4.466;2022-11-20T16:54:04;9.00;99.90
25973;DHT22;13765;51.166;4.466;2022-11-20T16:56:35;9.10;99.90
25973;DHT22;13765;51.166;4.466;2022-11-20T16:59:03;9.20;99.90
25973;DHT22;13765;51.166;4.466;2022-11-20T17:01:31;9.00;99.90
25973;DHT22;13765;51.166;4.466;2022-11-20T17:04:08;9.00;99.90
25973;DHT22;13765;51.166;4.466;2022-11-20T17:06:36;9.00;99.90
25973;DHT22;13765;51.166;4.466;2022-11-20T17:09:03;9.00;99.90
25973;DHT22;13765;51.166;4.466;2022-11-20T17:11:29;9.10;99.90
25973;DHT22;13765;51.166;4.466;2022-11-20T17:13:58;9.20;99.90
25973;DHT22;13765;51.166;4.466;2022-11-20T17:16:32;9.20;99.90
25973;DHT22;13765;51.166;4.466;2022-11-20T17:19:01;9.00;99.90
25973;DHT22;13765;51.166;4.466;2022-11-20T17:21:28;9.10;99.90
25973;DHT22;13765;51.166;4.466;2022-11-20T17:23:54;9.00;99.90
25973;DHT22;13765;51.166;4.466;2022-11-20T17:26:22;9.00;99.90
25973;DHT22;13765;51.166;4.466;2022-11-20T17:29:08;9.10;99.90
25973;DHT22;13765;51.166;4.466;2022-11-20T17:31:36;9.10;99.90
25973;DHT22;13765;51.166;4.466;2022-11-20T17:34:07;9.10;99.90
25973;DHT22;13765;51.166;4.466;2022-11-20T17:36:36;9.10;99.90
25973;DHT22;13765;51.166;4.466;2022-11-20T17:39:04;9.00;99.90
25973;DHT22;13765;51.166;4.466;2022-11-20T17:41:30;9.00;99.90